createdAt,value
2022-09-28T00:00:51.306Z,11.11
2022-09-28T00:06:02.056Z,11.14
2022-09-28T00:11:07.247Z,11.09
2022-09-28T00:16:14.093Z,11.08
2022-09-28T00:21:19.631Z,11.06
2022-09-28T00:26:22.458Z,11.02
2022-09-28T00:31:26.384Z,11.04
2022-09-28T00:36:32.073Z,11.03
2022-09-28T00:41:36.150Z,11.04
2022-09-28T00:46:38.875Z,11.06
2022-09-28T00:51:44.499Z,11.05
2022-09-28T00:56:49.349Z,11.03
2022-09-28T01:01:52.185Z,11.04
2022-09-28T01:06:58.244Z,11.02
2022-09-28T01:12:00.989Z,11.04
2022-09-28T01:17:09.565Z,11.03
2022-09-28T01:22:28.293Z,11.03
2022-09-28T01:27:36.130Z,11.02
2022-09-28T01:32:50.058Z,11.02
2022-09-28T01:37:57.924Z,11.02
2022-09-28T01:43:05.187Z,11.01
2022-09-28T01:48:09.645Z,10.98
2022-09-28T01:53:18.386Z,10.97
2022-09-28T01:58:28.086Z,10.96
2022-09-28T02:03:36.750Z,10.96
2022-09-28T02:08:44.044Z,10.98
2022-09-28T02:13:53.802Z,10.99
2022-09-28T02:18:56.914Z,10.97
2022-09-28T02:24:04.751Z,10.97
2022-09-28T02:29:09.067Z,10.99
2022-09-28T02:34:11.818Z,11.02
2022-09-28T02:39:15.130Z,11.01
2022-09-28T02:44:39.894Z,10.99
2022-09-28T02:49:49.591Z,10.98
2022-09-28T02:55:21.226Z,11.00
2022-09-28T03:00:25.906Z,10.98
2022-09-28T03:05:39.777Z,10.97
2022-09-28T03:10:47.657Z,10.95
2022-09-28T03:15:51.773Z,10.94
2022-09-28T03:20:54.555Z,10.94
2022-09-28T03:25:57.440Z,10.95
2022-09-28T03:31:01.568Z,10.97
2022-09-28T03:36:04.324Z,11.00
2022-09-28T03:41:07.626Z,10.99
2022-09-28T03:46:11.707Z,10.97
2022-09-28T03:51:15.032Z,10.96
2022-09-28T03:56:17.842Z,10.95
2022-09-28T04:01:22.012Z,10.94
2022-09-28T04:06:25.411Z,10.94
2022-09-28T04:11:34.909Z,10.92
2022-09-28T04:16:48.120Z,10.94
2022-09-28T04:21:51.958Z,10.96
2022-09-28T04:27:15.442Z,10.95
2022-09-28T04:32:19.621Z,10.92
2022-09-28T04:37:22.329Z,10.91
2022-09-28T04:42:25.049Z,10.91
2022-09-28T04:47:30.636Z,10.91
2022-09-28T04:52:33.361Z,10.92
2022-09-28T04:57:36.148Z,10.90
2022-09-28T05:02:40.349Z,10.88
2022-09-28T05:07:43.062Z,10.86
2022-09-28T05:12:45.747Z,10.85
2022-09-28T05:17:49.804Z,10.84
2022-09-28T05:22:52.535Z,10.80
2022-09-28T05:27:56.826Z,10.75
2022-09-28T05:33:01.005Z,10.70
2022-09-28T05:38:05.577Z,10.75
2022-09-28T05:43:08.399Z,10.79
2022-09-28T05:48:12.487Z,10.78
2022-09-28T05:53:15.167Z,10.79
2022-09-28T05:58:18.115Z,10.78
2022-09-28T06:03:22.264Z,10.75
2022-09-28T06:08:24.972Z,10.78
2022-09-28T06:13:28.329Z,10.82
2022-09-28T06:18:32.413Z,10.89
2022-09-28T06:23:35.105Z,10.90
2022-09-28T06:28:38.106Z,10.90
2022-09-28T06:33:42.694Z,10.89
2022-09-28T06:38:45.485Z,10.89
2022-09-28T06:43:48.807Z,10.87
2022-09-28T06:48:53.153Z,10.85
2022-09-28T06:53:56.568Z,10.85
2022-09-28T06:58:59.259Z,10.81
2022-09-28T07:04:03.511Z,10.75
2022-09-28T07:09:26.908Z,10.71
2022-09-28T07:14:46.496Z,10.68
2022-09-28T07:19:52.720Z,10.63
2022-09-28T07:24:55.477Z,10.62
2022-09-28T07:29:58.848Z,10.62
2022-09-28T07:35:08.082Z,10.60
2022-09-28T07:40:29.322Z,10.59
2022-09-28T07:45:36.103Z,10.59
2022-09-28T07:50:40.292Z,10.60
2022-09-28T07:55:43.046Z,10.66
2022-09-28T08:00:48.124Z,10.71
2022-09-28T08:05:52.267Z,10.81
2022-09-28T08:16:08.296Z,10.96
2022-09-28T08:21:30.005Z,11.05
2022-09-28T08:26:32.721Z,11.16
2022-09-28T08:31:36.029Z,11.30
2022-09-28T08:36:40.102Z,11.46
2022-09-28T08:41:49.800Z,11.59
2022-09-28T08:46:57.628Z,11.68
2022-09-28T08:52:06.447Z,11.81
2022-09-28T08:57:15.415Z,11.98
2022-09-28T09:02:24.010Z,12.09
2022-09-28T09:07:59.700Z,12.23
2022-09-28T09:13:19.163Z,12.30
2022-09-28T09:18:32.222Z,12.43
2022-09-28T09:23:40.044Z,12.49
2022-09-28T09:28:59.509Z,12.57
2022-09-28T09:34:23.657Z,12.65
2022-09-28T09:39:39.375Z,12.75
2022-09-28T09:45:03.162Z,12.84
2022-09-28T09:50:12.698Z,12.95
2022-09-28T09:55:30.120Z,13.10
2022-09-28T10:00:34.292Z,13.20
2022-09-28T10:05:38.196Z,13.31
2022-09-28T10:10:50.530Z,13.31
2022-09-28T10:15:53.276Z,13.48
2022-09-28T10:20:55.980Z,13.62
2022-09-28T10:26:06.866Z,13.75
2022-09-28T10:31:35.232Z,13.82
2022-09-28T10:36:50.891Z,13.84
2022-09-28T10:41:55.506Z,13.92
2022-09-28T10:47:01.160Z,13.99
2022-09-28T10:52:04.595Z,14.13
2022-09-28T10:57:28.269Z,14.33
2022-09-28T11:02:36.038Z,14.35
2022-09-28T11:07:47.199Z,14.28
2022-09-28T11:12:52.382Z,14.27
2022-09-28T11:17:55.293Z,14.29
2022-09-28T11:22:59.820Z,14.23
2022-09-28T11:28:05.664Z,14.12
2022-09-28T11:33:17.611Z,14.03
2022-09-28T11:38:33.525Z,13.99
2022-09-28T11:43:55.470Z,13.96
2022-09-28T11:49:03.738Z,13.87
2022-09-28T11:54:14.389Z,13.86
2022-09-28T11:59:23.483Z,13.85
2022-09-28T12:04:32.984Z,13.74
2022-09-28T12:09:43.444Z,13.68
2022-09-28T12:14:49.191Z,13.69
2022-09-28T12:19:56.699Z,13.72
2022-09-28T12:25:01.677Z,13.72
2022-09-28T12:30:14.178Z,13.71
2022-09-28T12:35:28.888Z,13.74
2022-09-28T12:40:38.774Z,13.84
2022-09-28T12:46:11.535Z,13.81
2022-09-28T12:51:29.812Z,13.71
2022-09-28T12:56:42.091Z,13.73
2022-09-28T13:02:14.803Z,13.88
2022-09-28T13:07:27.185Z,13.96
2022-09-28T13:12:38.768Z,13.87
2022-09-28T13:17:54.457Z,13.84
2022-09-28T13:23:07.476Z,13.90
2022-09-28T13:28:14.476Z,13.88
2022-09-28T13:33:26.846Z,14.05
2022-09-28T13:38:50.869Z,14.07
2022-09-28T13:44:20.937Z,13.94
2022-09-28T13:49:32.532Z,13.97
2022-09-28T13:54:53.558Z,14.05
2022-09-28T14:00:17.431Z,13.92
2022-09-28T14:05:48.473Z,14.09
2022-09-28T14:10:53.163Z,13.99
2022-09-28T14:16:20.876Z,14.17
2022-09-28T14:22:01.734Z,14.32
2022-09-28T14:27:29.772Z,14.32
2022-09-28T14:32:37.032Z,14.08
2022-09-28T14:38:00.272Z,13.89
2022-09-28T14:43:28.509Z,13.64
2022-09-28T14:48:44.933Z,13.54
2022-09-28T14:53:51.529Z,13.40
2022-09-28T14:58:57.887Z,13.40
2022-09-28T15:04:05.589Z,13.50
2022-09-28T15:09:31.349Z,13.65
2022-09-28T15:14:41.426Z,13.80
2022-09-28T15:19:52.276Z,13.77
2022-09-28T15:25:02.231Z,13.83
2022-09-28T15:30:22.902Z,13.87
2022-09-28T15:35:27.729Z,13.90
2022-09-28T15:40:34.645Z,13.82
2022-09-28T15:45:39.939Z,13.62
2022-09-28T15:50:56.958Z,13.26
2022-09-28T15:56:10.109Z,12.93
2022-09-28T16:01:27.087Z,12.62
2022-09-28T16:06:29.888Z,12.44
2022-09-28T16:11:38.899Z,12.31
2022-09-28T16:16:46.897Z,12.21
2022-09-28T16:21:53.423Z,12.09
2022-09-28T16:26:59.855Z,11.99
2022-09-28T16:32:35.094Z,11.96
2022-09-28T16:37:40.892Z,11.90
2022-09-28T16:42:49.049Z,11.82
2022-09-28T16:47:53.062Z,11.77
2022-09-28T16:53:19.782Z,11.76
2022-09-28T16:58:25.116Z,11.72
2022-09-28T17:03:28.940Z,11.68
2022-09-28T17:08:32.884Z,11.60
2022-09-28T17:13:37.441Z,11.54
2022-09-28T17:18:40.457Z,11.44
2022-09-28T17:23:43.177Z,11.38
2022-09-28T17:28:47.275Z,11.34
2022-09-28T17:33:50.088Z,11.30
2022-09-28T17:38:52.801Z,11.29
2022-09-28T17:43:57.158Z,11.30
2022-09-28T17:49:01.349Z,11.29
2022-09-28T17:54:04.700Z,11.26
2022-09-28T17:59:13.664Z,11.25
2022-09-28T18:04:39.847Z,11.24
2022-09-28T18:09:39.701Z,11.20
2022-09-28T18:14:43.745Z,11.23
2022-09-28T18:19:46.475Z,11.24
2022-09-28T18:24:49.197Z,11.21
2022-09-28T18:29:53.339Z,11.23
2022-09-28T18:34:56.041Z,11.22
2022-09-28T18:39:58.985Z,11.20
2022-09-28T18:45:03.087Z,11.21
2022-09-28T18:50:06.337Z,11.18
2022-09-28T18:55:09.834Z,11.14
2022-09-28T19:00:15.789Z,11.08
2022-09-28T19:05:19.104Z,11.02
2022-09-28T19:10:21.982Z,11.00
2022-09-28T19:15:26.231Z,10.96
2022-09-28T19:20:28.987Z,10.95
2022-09-28T19:25:31.676Z,10.94
2022-09-28T19:30:36.194Z,10.93
2022-09-28T19:35:49.852Z,10.90
2022-09-28T19:40:52.579Z,10.85
2022-09-28T19:45:56.930Z,10.80
2022-09-28T19:51:01.416Z,10.77
2022-09-28T19:56:05.522Z,10.79
2022-09-28T20:01:09.753Z,10.79
2022-09-28T20:06:17.104Z,10.79
2022-09-28T20:11:20.721Z,10.80
2022-09-28T20:16:25.424Z,10.79
2022-09-28T20:21:28.573Z,10.76
2022-09-28T20:26:35.691Z,10.70
2022-09-28T20:31:39.940Z,10.65
2022-09-28T20:36:43.135Z,10.64
2022-09-28T20:41:47.153Z,10.61
2022-09-28T20:46:52.628Z,10.59
2022-09-28T20:51:55.646Z,10.54
2022-09-28T20:56:58.365Z,10.55
2022-09-28T21:02:02.661Z,10.54
2022-09-28T21:07:05.636Z,10.55
2022-09-28T21:12:09.192Z,10.52
2022-09-28T21:17:13.298Z,10.50
2022-09-28T21:22:16.014Z,10.45
2022-09-28T21:27:18.703Z,10.41
2022-09-28T21:32:23.182Z,10.36
2022-09-28T21:37:25.906Z,10.33
2022-09-28T21:42:28.646Z,10.30
2022-09-28T21:47:32.728Z,10.25
2022-09-28T21:52:35.445Z,10.21
2022-09-28T21:57:38.152Z,10.15
2022-09-28T22:02:42.493Z,10.08
2022-09-28T22:07:45.265Z,10.02
2022-09-28T22:12:47.959Z,9.94
2022-09-28T22:17:52.055Z,9.86
2022-09-28T22:22:54.958Z,9.77
2022-09-28T22:27:57.695Z,9.72
2022-09-28T22:33:02.442Z,9.62
2022-09-28T22:38:05.192Z,9.55
2022-09-28T22:43:07.932Z,9.51
2022-09-28T22:48:12.826Z,9.41
2022-09-28T22:53:15.960Z,9.35
2022-09-28T22:58:18.741Z,9.29
2022-09-28T23:03:22.810Z,9.22
2022-09-28T23:08:25.661Z,9.16
2022-09-28T23:13:28.721Z,9.09
2022-09-28T23:18:34.513Z,9.04
2022-09-28T23:23:37.248Z,8.96
2022-09-28T23:28:40.009Z,8.89
2022-09-28T23:33:44.157Z,8.83
2022-09-28T23:38:46.869Z,8.79
2022-09-28T23:43:49.567Z,8.74
2022-09-28T23:48:53.856Z,8.69
2022-09-28T23:53:56.611Z,8.62
2022-09-28T23:58:59.544Z,8.56
